createdAt,value
2018-03-29T00:01:31.866Z,54.20
2018-03-29T00:04:01.247Z,54.10
2018-03-29T00:06:30.562Z,54.10
2018-03-29T00:09:00.042Z,53.70
2018-03-29T00:11:31.012Z,56.00
2018-03-29T00:14:02.663Z,55.30
2018-03-29T00:16:34.113Z,55.30
2018-03-29T00:19:04.641Z,55.90
2018-03-29T00:21:34.705Z,56.90
2018-03-29T00:24:06.830Z,56.90
2018-03-29T00:26:36.821Z,56.80
2018-03-29T00:29:07.150Z,57.00
2018-03-29T00:31:38.382Z,58.00
2018-03-29T00:34:11.326Z,56.90
2018-03-29T00:36:45.006Z,56.00
2018-03-29T00:39:21.426Z,54.30
2018-03-29T00:41:53.884Z,55.40
2018-03-29T00:44:23.935Z,55.40
2018-03-29T00:47:00.208Z,55.40
2018-03-29T00:49:37.868Z,56.80
2018-03-29T00:52:09.757Z,56.80
2018-03-29T00:54:45.538Z,56.20
2018-03-29T00:57:16.826Z,56.00
2018-03-29T00:59:52.227Z,55.90
2018-03-29T01:02:23.712Z,55.00
2018-03-29T01:04:55.493Z,54.90
2018-03-29T01:07:26.752Z,55.60
2018-03-29T01:09:59.021Z,56.30
2018-03-29T01:12:33.782Z,55.20
2018-03-29T01:15:04.736Z,55.20
2018-03-29T01:17:34.887Z,55.60
2018-03-29T01:20:05.139Z,55.60
2018-03-29T01:22:41.755Z,55.50
2018-03-29T01:25:12.007Z,55.50
2018-03-29T01:27:44.837Z,55.30
2018-03-29T01:30:15.714Z,56.20
2018-03-29T01:32:46.465Z,57.20
2018-03-29T01:35:23.239Z,56.80
2018-03-29T01:37:54.420Z,56.60
2018-03-29T01:40:26.804Z,56.00
2018-03-29T01:42:57.963Z,56.20
2018-03-29T01:45:29.057Z,56.70
2018-03-29T01:47:59.540Z,57.20
2018-03-29T01:50:30.883Z,57.40
2018-03-29T01:53:04.617Z,56.70
2018-03-29T01:55:35.801Z,56.70
2018-03-29T01:58:07.889Z,56.70
2018-03-29T02:00:39.238Z,56.60
2018-03-29T02:03:09.442Z,57.00
2018-03-29T02:05:42.605Z,57.30
2018-03-29T02:08:14.215Z,58.40
2018-03-29T02:10:46.869Z,58.40
2018-03-29T02:13:19.964Z,58.60
2018-03-29T02:15:50.814Z,58.60
2018-03-29T02:18:21.734Z,59.60
2018-03-29T02:20:54.508Z,59.50
2018-03-29T02:23:26.095Z,59.20
2018-03-29T02:25:55.694Z,58.60
2018-03-29T02:28:31.757Z,56.30
2018-03-29T02:31:08.375Z,56.20
2018-03-29T02:33:38.661Z,56.50
2018-03-29T02:36:13.590Z,55.60
2018-03-29T02:38:43.821Z,55.60
2018-03-29T02:41:13.955Z,55.50
2018-03-29T02:43:45.187Z,55.70
2018-03-29T02:46:16.972Z,56.10
2018-03-29T02:48:46.904Z,56.10
2018-03-29T02:51:16.636Z,56.20
2018-03-29T02:53:47.652Z,55.90
2018-03-29T02:56:18.761Z,56.70
2018-03-29T02:58:51.204Z,55.70
2018-03-29T03:01:24.075Z,56.00
2018-03-29T03:03:54.524Z,55.30
2018-03-29T03:06:24.529Z,55.20
2018-03-29T03:08:57.613Z,55.30
2018-03-29T03:11:27.600Z,54.80
2018-03-29T03:13:58.779Z,54.50
2018-03-29T03:16:29.440Z,54.70
2018-03-29T03:19:00.351Z,56.00
2018-03-29T03:21:30.396Z,56.20
2018-03-29T03:24:03.371Z,56.00
2018-03-29T03:26:35.275Z,55.70
2018-03-29T03:29:06.770Z,55.30
2018-03-29T03:31:38.591Z,55.30
2018-03-29T03:34:08.765Z,55.10
2018-03-29T03:36:39.882Z,54.60
2018-03-29T03:39:10.780Z,54.90
2018-03-29T03:41:42.284Z,55.90
2018-03-29T03:44:14.196Z,55.20
2018-03-29T03:46:46.834Z,55.40
2018-03-29T03:49:17.896Z,55.00
2018-03-29T03:51:50.658Z,57.50
2018-03-29T03:54:21.743Z,57.50
2018-03-29T03:56:51.887Z,58.00
2018-03-29T03:59:23.010Z,58.20
2018-03-29T04:01:55.129Z,58.10
2018-03-29T04:04:26.243Z,59.10
2018-03-29T04:06:58.840Z,58.70
2018-03-29T04:09:43.698Z,57.50
2018-03-29T04:12:17.563Z,56.90
2018-03-29T04:14:49.962Z,56.90
2018-03-29T04:17:20.504Z,57.40
2018-03-29T04:19:53.314Z,58.00
2018-03-29T04:22:23.832Z,58.00
2018-03-29T04:24:54.836Z,57.30
2018-03-29T04:27:26.778Z,57.60
2018-03-29T04:29:58.214Z,56.00
2018-03-29T04:32:28.627Z,55.90
2018-03-29T04:35:00.405Z,56.10
2018-03-29T04:37:30.684Z,56.80
2018-03-29T04:40:03.209Z,56.80
2018-03-29T04:42:34.018Z,57.40
2018-03-29T04:45:03.962Z,58.40
2018-03-29T04:47:34.404Z,58.00
2018-03-29T04:50:05.366Z,57.00
2018-03-29T04:52:38.343Z,56.90
2018-03-29T04:55:12.562Z,56.90
2018-03-29T04:57:47.297Z,59.20
2018-03-29T05:00:17.448Z,59.30
2018-03-29T05:02:46.776Z,58.50
2018-03-29T05:05:16.124Z,58.40
2018-03-29T05:07:45.791Z,57.90
2018-03-29T05:10:15.115Z,58.00
2018-03-29T05:12:47.007Z,57.60
2018-03-29T05:15:18.512Z,57.20
2018-03-29T05:17:55.555Z,56.70
2018-03-29T05:20:31.315Z,55.90
2018-03-29T05:23:02.855Z,55.70
2018-03-29T05:25:36.169Z,56.60
2018-03-29T05:28:09.900Z,56.40
2018-03-29T05:30:40.781Z,57.10
2018-03-29T05:33:11.872Z,57.10
2018-03-29T05:35:43.167Z,56.40
2018-03-29T05:38:13.163Z,56.40
2018-03-29T05:40:43.247Z,56.70
2018-03-29T05:43:15.070Z,56.00
2018-03-29T05:46:07.312Z,56.00
